createdAt,value
2024-04-05T00:00:53.608Z,10.73
2024-04-05T00:03:39.947Z,10.70
2024-04-05T00:06:05.188Z,10.70
2024-04-05T00:08:34.594Z,10.69
2024-04-05T00:11:01.120Z,10.70
2024-04-05T00:13:26.119Z,10.71
2024-04-05T00:15:53.270Z,10.70
2024-04-05T00:18:20.418Z,10.70
2024-04-05T00:20:46.796Z,10.73
2024-04-05T00:23:11.750Z,10.75
2024-04-05T00:25:38.739Z,10.78
2024-04-05T00:28:05.754Z,10.83
2024-04-05T00:30:32.174Z,10.87
2024-04-05T00:32:58.714Z,10.94
2024-04-05T00:35:25.368Z,10.97
2024-04-05T00:37:51.903Z,10.99
2024-04-05T00:40:18.627Z,11.01
2024-04-05T00:42:45.167Z,11.02
2024-04-05T00:45:11.833Z,11.05
2024-04-05T00:47:38.728Z,11.08
2024-04-05T00:50:08.171Z,11.08
2024-04-05T00:52:35.115Z,11.10
2024-04-05T00:55:02.248Z,11.11
2024-04-05T00:57:29.293Z,11.12
2024-04-05T00:59:56.451Z,11.16
2024-04-05T01:02:23.082Z,11.14
2024-04-05T01:04:49.516Z,11.15
2024-04-05T01:07:16.057Z,11.15
2024-04-05T01:09:42.591Z,11.15
2024-04-05T01:12:10.082Z,11.15
2024-04-05T01:14:36.697Z,11.16
2024-04-05T01:17:03.144Z,11.16
2024-04-05T01:19:32.936Z,11.15
2024-04-05T01:22:01.954Z,11.14
2024-04-05T01:24:28.881Z,11.12
2024-04-05T01:26:55.412Z,11.12
2024-04-05T01:29:21.960Z,11.11
2024-04-05T01:31:48.288Z,11.11
2024-04-05T01:34:15.629Z,11.12
2024-04-05T01:36:41.987Z,11.15
2024-04-05T01:39:06.971Z,11.17
2024-04-05T01:41:35.342Z,11.18
2024-04-05T01:44:03.670Z,11.18
2024-04-05T01:46:30.148Z,11.17
2024-04-05T01:48:56.688Z,11.15
2024-04-05T01:51:23.550Z,11.14
2024-04-05T01:53:50.068Z,11.13
2024-04-05T01:56:16.599Z,11.11
2024-04-05T01:58:44.386Z,11.09
2024-04-05T02:01:10.840Z,11.08
2024-04-05T02:03:35.906Z,11.07
2024-04-05T02:06:02.394Z,11.05
2024-04-05T02:08:27.437Z,11.03
2024-04-05T02:10:53.857Z,11.01
2024-04-05T02:13:20.412Z,11.00
2024-04-05T02:15:49.237Z,11.00
2024-04-05T02:18:15.732Z,10.99
2024-04-05T02:20:44.418Z,10.98
2024-04-05T02:23:11.102Z,10.98
2024-04-05T02:25:37.468Z,10.97
2024-04-05T02:28:02.419Z,10.97
2024-04-05T02:30:28.924Z,10.94
2024-04-05T02:32:55.492Z,10.92
2024-04-05T02:35:22.204Z,10.90
2024-04-05T02:37:49.088Z,10.89
2024-04-05T02:40:15.921Z,10.90
2024-04-05T02:42:42.529Z,10.88
2024-04-05T02:45:09.909Z,10.90
2024-04-05T02:47:36.313Z,10.89
2024-04-05T02:50:01.326Z,10.89
2024-04-05T02:52:27.986Z,10.86
2024-04-05T02:54:54.323Z,10.85
2024-04-05T02:57:19.254Z,10.84
2024-04-05T02:59:46.047Z,10.80
2024-04-05T03:02:13.350Z,10.79
2024-04-05T03:04:39.740Z,10.78
2024-04-05T03:07:06.787Z,10.79
2024-04-05T03:09:34.027Z,10.80
2024-04-05T03:12:00.754Z,10.79
2024-04-05T03:14:27.914Z,10.80
2024-04-05T03:16:55.232Z,10.81
2024-04-05T03:19:21.808Z,10.81
2024-04-05T03:21:48.227Z,10.82
2024-04-05T03:24:14.598Z,10.83
2024-04-05T03:26:40.409Z,10.83
2024-04-05T03:29:07.284Z,10.80
2024-04-05T03:31:34.172Z,10.76
2024-04-05T03:34:00.604Z,10.75
2024-04-05T03:36:27.032Z,10.73
2024-04-05T03:38:52.197Z,10.73
2024-04-05T03:41:18.773Z,10.68
2024-04-05T03:43:45.555Z,10.69
2024-04-05T03:46:12.255Z,10.68
2024-04-05T03:48:38.789Z,10.67
2024-04-05T03:51:05.665Z,10.66
2024-04-05T03:53:32.105Z,10.66
2024-04-05T03:55:57.616Z,10.65
2024-04-05T03:58:24.118Z,10.61
2024-04-05T04:00:54.989Z,10.58
2024-04-05T04:03:21.793Z,10.55
2024-04-05T04:05:48.321Z,10.55
2024-04-05T04:08:15.383Z,10.55
2024-04-05T04:10:43.430Z,10.53
2024-04-05T04:13:10.251Z,10.51
2024-04-05T04:15:37.864Z,10.51
2024-04-05T04:18:04.599Z,10.49
2024-04-05T04:20:31.242Z,10.46
2024-04-05T04:22:57.768Z,10.45
2024-04-05T04:25:24.201Z,10.44
2024-04-05T04:27:51.369Z,10.42
2024-04-05T04:30:18.000Z,10.42
2024-04-05T04:32:44.538Z,10.39
2024-04-05T04:35:11.726Z,10.35
2024-04-05T04:37:38.292Z,10.35
2024-04-05T04:40:05.712Z,10.31
2024-04-05T04:42:32.204Z,10.28
2024-04-05T04:44:59.099Z,10.27
2024-04-05T04:47:28.251Z,10.27
2024-04-05T04:49:56.274Z,10.27
2024-04-05T04:52:23.911Z,10.23
2024-04-05T04:54:51.067Z,10.23
2024-04-05T04:57:17.575Z,10.20
2024-04-05T04:59:44.096Z,10.18
2024-04-05T05:02:10.840Z,10.17
2024-04-05T05:04:37.271Z,10.15
2024-04-05T05:07:04.322Z,10.13
2024-04-05T05:09:30.775Z,10.14
2024-04-05T05:11:57.412Z,10.21
2024-04-05T05:14:24.723Z,10.63
2024-04-05T05:16:51.132Z,11.74
2024-04-05T05:19:17.616Z,13.08
2024-04-05T05:21:44.660Z,15.04
2024-04-05T05:24:11.339Z,16.96
2024-04-05T05:26:37.847Z,18.69
2024-04-05T05:29:05.194Z,20.20
2024-04-05T05:31:31.654Z,21.34
2024-04-05T05:33:58.566Z,22.33
2024-04-05T05:36:24.937Z,23.21
2024-04-05T05:38:51.302Z,24.08
2024-04-05T05:41:18.179Z,25.30
2024-04-05T05:43:45.350Z,26.39
2024-04-05T05:46:11.868Z,27.08
2024-04-05T05:48:38.878Z,27.70
2024-04-05T05:51:05.773Z,28.44
2024-04-05T05:53:32.228Z,29.35
2024-04-05T05:56:01.251Z,29.28
2024-04-05T05:58:29.254Z,29.46
2024-04-05T06:00:55.862Z,29.24
2024-04-05T06:03:23.256Z,28.45
2024-04-05T06:05:55.777Z,27.38
2024-04-05T06:08:22.365Z,25.75
2024-04-05T06:10:58.588Z,25.23
2024-04-05T06:13:26.019Z,24.04
2024-04-05T06:15:58.458Z,22.72
2024-04-05T06:18:25.515Z,21.45
2024-04-05T06:20:57.207Z,20.72
2024-04-05T06:23:24.143Z,20.02
2024-04-05T06:25:58.649Z,19.14
2024-04-05T06:28:25.573Z,18.31
2024-04-05T06:30:52.049Z,17.59
2024-04-05T06:33:18.546Z,16.90
2024-04-05T06:35:45.288Z,16.36
2024-04-05T06:38:11.824Z,15.94
2024-04-05T06:40:39.743Z,15.52
2024-04-05T06:43:07.929Z,15.10
2024-04-05T06:45:34.523Z,14.75
2024-04-05T06:48:02.638Z,14.43
2024-04-05T06:50:32.016Z,14.18
2024-04-05T06:53:00.644Z,14.09
2024-04-05T06:55:27.723Z,13.92
2024-04-05T06:57:56.070Z,13.78
2024-04-05T07:00:23.377Z,13.69
2024-04-05T07:02:49.911Z,13.72
2024-04-05T07:05:17.034Z,13.73
2024-04-05T07:07:43.568Z,13.98
2024-04-05T07:10:10.931Z,16.25
2024-04-05T07:12:37.663Z,18.16
2024-04-05T07:15:06.268Z,19.05
2024-04-05T07:17:32.739Z,19.60
2024-04-05T07:20:00.568Z,19.24
2024-04-05T07:22:28.894Z,18.72
2024-04-05T07:24:55.785Z,19.34
2024-04-05T07:27:23.699Z,21.02
2024-04-05T07:29:50.289Z,21.04
2024-04-05T07:32:17.482Z,20.78
2024-04-05T07:34:43.962Z,20.87
2024-04-05T07:37:11.254Z,20.59
2024-04-05T07:39:40.415Z,20.06
2024-04-05T07:42:07.664Z,19.48
2024-04-05T07:44:34.816Z,19.00
2024-04-05T07:47:01.264Z,18.57
2024-04-05T07:49:27.786Z,18.28
2024-04-05T07:51:54.422Z,18.02
2024-04-05T07:54:22.191Z,17.78
2024-04-05T07:56:51.916Z,17.65
2024-04-05T07:59:23.290Z,17.59
2024-04-05T08:01:50.411Z,17.48
2024-04-05T08:04:16.877Z,17.38
2024-04-05T08:06:43.467Z,17.26
2024-04-05T08:09:12.769Z,17.21
2024-04-05T08:11:39.303Z,17.21
2024-04-05T08:14:05.736Z,17.17
2024-04-05T08:16:32.270Z,17.09
2024-04-05T08:18:59.321Z,17.00
2024-04-05T08:21:25.859Z,16.94
2024-04-05T08:23:52.334Z,16.85
2024-04-05T08:26:18.713Z,16.80
2024-04-05T08:28:45.259Z,16.89
2024-04-05T08:31:11.807Z,16.97
2024-04-05T08:33:38.351Z,16.97
2024-04-05T08:36:05.072Z,16.97
2024-04-05T08:38:31.489Z,17.01
2024-04-05T08:40:59.544Z,16.90
2024-04-05T08:43:32.261Z,16.79
2024-04-05T08:45:58.795Z,16.74
2024-04-05T08:48:29.649Z,16.78
2024-04-05T08:50:56.988Z,16.85
2024-04-05T08:53:23.635Z,16.89
2024-04-05T08:55:50.986Z,16.88
2024-04-05T08:58:18.463Z,16.95
2024-04-05T09:00:45.286Z,16.99
2024-04-05T09:03:12.839Z,16.96
2024-04-05T09:05:39.275Z,16.88
2024-04-05T09:08:10.391Z,16.79
2024-04-05T09:10:37.656Z,16.67
2024-04-05T09:13:06.169Z,16.55
2024-04-05T09:15:33.716Z,16.45
2024-04-05T09:18:00.725Z,16.33
2024-04-05T09:20:31.395Z,16.16
2024-04-05T09:23:05.531Z,15.98
2024-04-05T09:25:33.805Z,15.82
2024-04-05T09:28:13.266Z,15.70
2024-04-05T09:30:41.913Z,15.64
2024-04-05T09:33:08.546Z,15.64
2024-04-05T09:35:39.075Z,15.69
2024-04-05T09:38:06.184Z,15.76
2024-04-05T09:40:33.945Z,15.83
2024-04-05T09:43:02.460Z,15.94
2024-04-05T09:45:32.390Z,16.04
2024-04-05T09:47:59.928Z,16.19
2024-04-05T09:50:27.472Z,16.38
2024-04-05T09:52:55.460Z,16.58
2024-04-05T09:55:25.666Z,16.71
2024-04-05T09:57:52.742Z,16.79
2024-04-05T10:00:24.916Z,16.84
2024-04-05T10:02:54.569Z,17.03
2024-04-05T10:05:29.840Z,17.23
2024-04-05T10:07:57.241Z,17.32
2024-04-05T10:10:33.745Z,17.31
2024-04-05T10:13:10.665Z,17.22
2024-04-05T10:15:37.198Z,17.05
2024-04-05T10:18:03.647Z,16.84
2024-04-05T10:20:31.022Z,16.65
2024-04-05T10:23:04.787Z,16.49
2024-04-05T10:25:31.484Z,16.37
2024-04-05T10:27:58.173Z,16.34
2024-04-05T10:30:25.233Z,16.48
2024-04-05T10:33:01.202Z,16.73
2024-04-05T10:35:28.345Z,17.25
2024-04-05T10:38:14.142Z,17.76
2024-04-05T10:40:46.493Z,18.53
2024-04-05T10:43:14.541Z,19.22
2024-04-05T10:45:42.171Z,19.99
2024-04-05T10:48:11.833Z,20.58
2024-04-05T10:50:41.553Z,20.59
2024-04-05T10:53:09.101Z,20.37
2024-04-05T10:55:37.658Z,20.27
2024-04-05T10:58:08.899Z,20.08
2024-04-05T11:00:37.534Z,19.94
2024-04-05T11:03:04.972Z,19.82
2024-04-05T11:05:31.511Z,19.64
2024-04-05T11:08:05.187Z,19.39
2024-04-05T11:10:35.652Z,19.10
2024-04-05T11:13:02.586Z,18.89
2024-04-05T11:15:29.123Z,18.77
2024-04-05T11:18:04.754Z,18.65
2024-04-05T11:20:32.947Z,18.55
2024-04-05T11:23:03.376Z,18.55
2024-04-05T11:25:30.115Z,18.55
2024-04-05T11:27:56.461Z,18.53
2024-04-05T11:30:23.404Z,18.47
2024-04-05T11:32:49.930Z,18.31
2024-04-05T11:35:16.668Z,18.09
2024-04-05T11:37:47.362Z,17.82
2024-04-05T11:40:23.032Z,17.73
2024-04-05T11:42:55.832Z,17.71
2024-04-05T11:45:22.315Z,17.74
2024-04-05T11:47:48.808Z,17.69
2024-04-05T11:50:15.314Z,17.64
2024-04-05T11:52:41.903Z,17.56
2024-04-05T11:55:09.333Z,17.47
2024-04-05T11:57:36.388Z,17.37
2024-04-05T12:00:05.815Z,17.24
2024-04-05T12:02:40.200Z,17.11
2024-04-05T12:05:08.682Z,17.01
2024-04-05T12:07:35.441Z,16.86
2024-04-05T12:10:02.017Z,16.79
2024-04-05T12:12:29.789Z,16.85
2024-04-05T12:14:56.566Z,16.98
2024-04-05T12:17:23.715Z,17.05
2024-04-05T12:19:51.131Z,17.05
2024-04-05T12:22:17.635Z,17.01
2024-04-05T12:24:47.937Z,16.91
2024-04-05T12:27:16.924Z,16.82
2024-04-05T12:29:47.252Z,16.69
2024-04-05T12:32:13.999Z,16.54
2024-04-05T12:34:40.535Z,16.44
2024-04-05T12:37:10.464Z,16.29
2024-04-05T12:39:37.321Z,16.17
2024-04-05T12:42:04.146Z,16.05
2024-04-05T12:44:31.373Z,15.98
2024-04-05T12:46:59.368Z,15.96
2024-04-05T12:49:26.190Z,15.96
2024-04-05T12:51:54.098Z,16.02
2024-04-05T12:54:20.921Z,16.10
2024-04-05T12:56:48.221Z,16.19
2024-04-05T12:59:15.719Z,16.28
2024-04-05T13:01:42.406Z,16.37
2024-04-05T13:04:09.286Z,16.38
2024-04-05T13:06:38.100Z,16.40
2024-04-05T13:09:04.754Z,16.47
2024-04-05T13:11:31.477Z,16.57
2024-04-05T13:13:57.917Z,16.77
2024-04-05T13:16:24.446Z,17.01
2024-04-05T13:18:52.318Z,17.19
2024-04-05T13:21:19.048Z,17.26
2024-04-05T13:23:47.667Z,17.31
2024-04-05T13:26:17.319Z,17.35
2024-04-05T13:28:45.515Z,17.33
2024-04-05T13:31:12.066Z,17.31
2024-04-05T13:33:39.078Z,17.27
2024-04-05T13:36:13.389Z,17.20
2024-04-05T13:38:40.799Z,17.15
2024-04-05T13:41:08.312Z,17.12
2024-04-05T13:43:34.996Z,17.08
2024-04-05T13:46:13.594Z,17.02
2024-04-05T13:48:43.924Z,17.03
2024-04-05T13:51:10.569Z,17.15
2024-04-05T13:53:38.677Z,17.35
2024-04-05T13:56:06.631Z,17.41
2024-04-05T13:58:33.888Z,17.46
2024-04-05T14:01:01.821Z,17.56
2024-04-05T14:03:28.378Z,17.65
2024-04-05T14:05:55.659Z,17.73
2024-04-05T14:08:22.348Z,17.78
2024-04-05T14:10:49.500Z,17.82
2024-04-05T14:13:16.499Z,17.80
2024-04-05T14:15:43.309Z,17.74
2024-04-05T14:18:13.403Z,17.71
2024-04-05T14:20:41.277Z,17.65
2024-04-05T14:23:09.178Z,17.59
2024-04-05T14:25:36.002Z,17.54
2024-04-05T14:28:02.450Z,17.49
2024-04-05T14:30:31.262Z,17.48
2024-04-05T14:32:57.681Z,17.48
2024-04-05T14:35:24.175Z,17.49
2024-04-05T14:37:51.636Z,17.53
2024-04-05T14:40:18.479Z,17.57
2024-04-05T14:42:44.910Z,17.62
2024-04-05T14:45:12.652Z,17.67
2024-04-05T14:47:39.211Z,17.67
2024-04-05T14:50:09.158Z,17.64
2024-04-05T14:52:36.787Z,17.60
2024-04-05T14:55:05.918Z,17.58
2024-04-05T14:57:33.282Z,17.67
2024-04-05T14:59:59.878Z,17.69
2024-04-05T15:02:26.549Z,17.64
2024-04-05T15:04:53.732Z,17.59
2024-04-05T15:07:20.271Z,17.51
2024-04-05T15:09:46.840Z,17.48
2024-04-05T15:12:13.585Z,17.49
2024-04-05T15:14:40.217Z,17.54
2024-04-05T15:17:07.673Z,17.56
2024-04-05T15:19:34.454Z,17.55
2024-04-05T15:22:01.463Z,17.53
2024-04-05T15:24:28.075Z,17.50
2024-04-05T15:26:57.609Z,17.44
2024-04-05T15:29:24.550Z,17.39
2024-04-05T15:31:50.987Z,17.36
2024-04-05T15:34:18.888Z,17.32
2024-04-05T15:36:46.445Z,17.28
2024-04-05T15:39:14.705Z,17.27
2024-04-05T15:41:41.228Z,17.24
2024-04-05T15:44:07.936Z,17.23
2024-04-05T15:46:35.528Z,17.19
2024-04-05T15:49:01.963Z,17.13
2024-04-05T15:51:28.499Z,17.01
2024-04-05T15:53:59.967Z,16.95
2024-04-05T15:56:27.145Z,16.85
2024-04-05T15:58:53.639Z,16.78
2024-04-05T16:01:20.331Z,16.71
2024-04-05T16:03:48.880Z,16.66
2024-04-05T16:06:15.575Z,16.56
2024-04-05T16:08:43.094Z,16.51
2024-04-05T16:11:11.784Z,16.52
2024-04-05T16:13:38.563Z,16.46
2024-04-05T16:16:06.653Z,16.44
2024-04-05T16:18:37.730Z,16.41
2024-04-05T16:21:10.326Z,16.38
2024-04-05T16:23:37.228Z,16.33
2024-04-05T16:26:05.387Z,16.31
2024-04-05T16:28:31.935Z,16.29
2024-04-05T16:30:58.570Z,16.26
2024-04-05T16:33:25.523Z,16.25
2024-04-05T16:35:52.560Z,16.23
2024-04-05T16:38:22.607Z,16.18
2024-04-05T16:40:49.484Z,16.10
2024-04-05T16:43:16.269Z,15.99
2024-04-05T16:45:43.937Z,15.90
2024-04-05T16:48:10.759Z,15.80
2024-04-05T16:50:41.614Z,15.71
2024-04-05T16:53:10.948Z,15.61
2024-04-05T16:55:37.594Z,15.54
2024-04-05T16:58:04.801Z,15.48
2024-04-05T17:00:31.646Z,15.41
2024-04-05T17:03:06.071Z,15.37
2024-04-05T17:05:34.034Z,15.31
2024-04-05T17:08:02.527Z,15.25
2024-04-05T17:10:38.489Z,15.21
2024-04-05T17:13:08.514Z,15.18
2024-04-05T17:15:35.044Z,15.14
2024-04-05T17:18:01.793Z,15.09
2024-04-05T17:20:28.414Z,15.05
2024-04-05T17:22:55.910Z,15.00
2024-04-05T17:25:22.933Z,14.94
2024-04-05T17:27:50.563Z,14.88
2024-04-05T17:30:17.663Z,14.80
2024-04-05T17:32:45.166Z,14.74
2024-04-05T17:35:11.735Z,14.67
2024-04-05T17:37:38.198Z,14.61
2024-04-05T17:40:06.227Z,14.55
2024-04-05T17:42:34.428Z,14.49
2024-04-05T17:45:00.864Z,14.43
2024-04-05T17:47:27.338Z,14.38
2024-04-05T17:49:53.823Z,14.33
2024-04-05T17:52:20.596Z,14.27
2024-04-05T17:54:47.703Z,14.21
2024-04-05T17:57:14.126Z,14.14
2024-04-05T17:59:40.566Z,14.09
2024-04-05T18:02:07.448Z,14.02
2024-04-05T18:04:35.784Z,13.96
2024-04-05T18:07:02.305Z,13.89
2024-04-05T18:09:29.162Z,13.85
2024-04-05T18:11:55.696Z,13.81
2024-04-05T18:14:22.341Z,13.76
2024-04-05T18:16:48.880Z,13.72
2024-04-05T18:19:18.377Z,13.69
2024-04-05T18:21:45.036Z,13.64
2024-04-05T18:24:12.003Z,13.60
2024-04-05T18:26:38.433Z,13.58
2024-04-05T18:29:04.943Z,13.55
2024-04-05T18:31:31.669Z,13.53
2024-04-05T18:33:59.267Z,13.51
2024-04-05T18:36:25.888Z,13.48
2024-04-05T18:38:57.169Z,13.45
2024-04-05T18:41:25.266Z,13.43
2024-04-05T18:43:51.938Z,13.40
2024-04-05T18:46:19.838Z,13.37
2024-04-05T18:48:46.951Z,13.33
2024-04-05T18:51:18.400Z,13.28
2024-04-05T18:53:44.941Z,13.25
2024-04-05T18:56:15.634Z,13.23
2024-04-05T18:58:42.308Z,13.21
2024-04-05T19:01:09.966Z,13.19
2024-04-05T19:03:42.138Z,13.16
2024-04-05T19:06:11.274Z,13.14
2024-04-05T19:08:38.287Z,13.11
2024-04-05T19:11:05.876Z,13.08
2024-04-05T19:13:37.293Z,13.07
2024-04-05T19:16:04.986Z,13.06
2024-04-05T19:18:31.657Z,13.04
2024-04-05T19:21:01.584Z,13.02
2024-04-05T19:23:30.512Z,13.01
2024-04-05T19:25:57.349Z,12.98
2024-04-05T19:28:24.129Z,12.97
2024-04-05T19:30:56.128Z,12.96
2024-04-05T19:33:23.491Z,12.95
2024-04-05T19:35:50.255Z,12.94
2024-04-05T19:38:18.458Z,12.93
2024-04-05T19:40:49.060Z,12.92
2024-04-05T19:43:15.900Z,12.90
2024-04-05T19:45:43.870Z,12.90
2024-04-05T19:48:11.800Z,12.89
2024-04-05T19:50:38.354Z,12.88
2024-04-05T19:53:07.312Z,12.87
2024-04-05T19:55:34.110Z,12.85
2024-04-05T19:58:04.057Z,12.84
2024-04-05T20:00:35.086Z,12.82
2024-04-05T20:03:01.559Z,12.81
2024-04-05T20:05:28.108Z,12.79
2024-04-05T20:07:55.391Z,12.75
2024-04-05T20:10:21.921Z,12.75
2024-04-05T20:12:48.771Z,12.72
2024-04-05T20:15:15.650Z,12.70
2024-04-05T20:17:42.026Z,12.68
2024-04-05T20:20:08.333Z,12.64
2024-04-05T20:22:34.917Z,12.62
2024-04-05T20:25:01.549Z,12.57
2024-04-05T20:27:28.496Z,12.54
2024-04-05T20:30:12.509Z,12.50
2024-04-05T20:32:39.180Z,12.46
2024-04-05T20:35:07.507Z,12.43
2024-04-05T20:37:34.745Z,12.41
2024-04-05T20:40:02.538Z,12.38
2024-04-05T20:42:28.907Z,12.36
2024-04-05T20:44:56.366Z,12.34
2024-04-05T20:47:22.920Z,12.34
2024-04-05T20:49:49.336Z,12.34
2024-04-05T20:52:16.105Z,12.35
2024-04-05T20:54:42.851Z,12.35
2024-04-05T20:57:10.444Z,12.36
2024-04-05T20:59:37.660Z,12.36
2024-04-05T21:02:04.367Z,12.38
2024-04-05T21:04:31.371Z,12.39
2024-04-05T21:06:58.377Z,12.40
2024-04-05T21:09:26.033Z,12.40
2024-04-05T21:11:52.593Z,12.40
2024-04-05T21:14:19.226Z,12.41
2024-04-05T21:16:46.179Z,12.41
2024-04-05T21:19:12.689Z,12.40
2024-04-05T21:21:39.239Z,12.40
2024-04-05T21:24:06.245Z,12.39
2024-04-05T21:26:33.102Z,12.39
2024-04-05T21:29:00.032Z,12.39
2024-04-05T21:31:26.716Z,12.38
2024-04-05T21:33:53.536Z,12.38
2024-04-05T21:36:20.698Z,12.38
2024-04-05T21:38:48.042Z,12.38
2024-04-05T21:41:14.785Z,12.42
2024-04-05T21:43:41.530Z,12.44
2024-04-05T21:46:08.551Z,12.46
2024-04-05T21:48:36.253Z,12.48
2024-04-05T21:53:33.303Z,12.53
2024-04-05T21:56:00.139Z,12.55
2024-04-05T21:58:28.827Z,12.55
2024-04-05T22:00:55.506Z,12.56
2024-04-05T22:03:22.202Z,12.58
2024-04-05T22:05:48.742Z,12.62
2024-04-05T22:08:15.337Z,12.66
2024-04-05T22:10:41.919Z,12.68
2024-04-05T22:13:08.662Z,12.71
2024-04-05T22:15:35.496Z,12.73
2024-04-05T22:18:02.065Z,12.73
2024-04-05T22:20:28.556Z,12.74
2024-04-05T22:22:55.111Z,12.72
2024-04-05T22:25:24.511Z,12.71
2024-04-05T22:27:51.009Z,12.70
2024-04-05T22:30:18.965Z,12.68
2024-04-05T22:32:45.354Z,12.66
2024-04-05T22:35:11.314Z,12.66
2024-04-05T22:37:37.861Z,12.62
2024-04-05T22:40:02.750Z,12.60
2024-04-05T22:42:29.721Z,12.58
2024-04-05T22:44:56.390Z,12.57
2024-04-05T22:47:21.340Z,12.59
2024-04-05T22:49:47.923Z,12.58
2024-04-05T22:52:14.358Z,12.58
2024-04-05T22:54:40.861Z,12.58
2024-04-05T22:57:07.832Z,12.59
2024-04-05T22:59:34.205Z,12.61
2024-04-05T23:02:00.707Z,12.62
2024-04-05T23:04:27.395Z,12.62
2024-04-05T23:06:53.734Z,12.63
2024-04-05T23:09:20.210Z,12.64
2024-04-05T23:11:46.520Z,12.64
2024-04-05T23:14:11.442Z,12.66
2024-04-05T23:16:37.979Z,12.64
2024-04-05T23:19:04.328Z,12.62
2024-04-05T23:21:30.687Z,12.62
2024-04-05T23:23:55.597Z,12.62
2024-04-05T23:26:25.130Z,12.60
2024-04-05T23:28:51.575Z,12.59
2024-04-05T23:31:17.925Z,12.60
2024-04-05T23:33:42.842Z,12.61
2024-04-05T23:36:10.004Z,12.60
2024-04-05T23:38:36.640Z,12.59
2024-04-05T23:41:02.992Z,12.64
2024-04-05T23:43:28.482Z,12.66
2024-04-05T23:45:54.932Z,12.68
2024-04-05T23:48:19.880Z,12.71
2024-04-05T23:50:46.204Z,12.72
2024-04-05T23:53:11.036Z,12.73
2024-04-05T23:55:38.308Z,12.78
2024-04-05T23:58:05.545Z,12.81
